createdAt,value
2023-05-06T00:01:53.326Z,3.63
2023-05-06T00:04:20.017Z,4.63
2023-05-06T00:06:47.175Z,4.10
2023-05-06T00:09:13.710Z,3.57
2023-05-06T00:11:40.611Z,6.73
2023-05-06T00:14:07.157Z,4.17
2023-05-06T00:16:33.695Z,5.30
2023-05-06T00:19:00.663Z,3.80
2023-05-06T00:21:27.408Z,4.40
2023-05-06T00:23:53.897Z,4.40
2023-05-06T00:26:20.382Z,5.67
2023-05-06T00:28:46.928Z,6.40
2023-05-06T00:31:13.509Z,6.50
2023-05-06T00:33:40.110Z,5.17
2023-05-06T00:36:06.946Z,3.07
2023-05-06T00:38:33.427Z,5.13
2023-05-06T00:40:59.888Z,3.63
2023-05-06T00:43:26.390Z,4.13
2023-05-06T00:45:53.190Z,6.47
2023-05-06T00:48:19.947Z,8.40
2023-05-06T00:50:46.570Z,3.30
2023-05-06T00:53:13.131Z,6.47
2023-05-06T00:55:39.904Z,2.97
2023-05-06T00:58:06.445Z,6.00
2023-05-06T01:00:32.967Z,3.03
2023-05-06T01:02:59.616Z,5.70
2023-05-06T01:05:32.777Z,2.63
2023-05-06T01:08:04.585Z,4.40
2023-05-06T01:10:42.926Z,4.07
2023-05-06T01:13:21.508Z,8.93
2023-05-06T01:15:54.203Z,3.27
2023-05-06T01:18:26.419Z,3.17
2023-05-06T01:20:55.872Z,4.23
2023-05-06T01:23:22.472Z,3.07
2023-05-06T01:25:50.822Z,3.83
2023-05-06T01:28:17.626Z,4.03
2023-05-06T01:30:47.127Z,6.10
2023-05-06T01:33:45.086Z,8.90
2023-05-06T01:36:40.988Z,4.43
2023-05-06T01:39:29.706Z,4.87
2023-05-06T01:41:57.688Z,3.83
2023-05-06T01:44:27.605Z,4.67
2023-05-06T01:46:56.145Z,6.57
2023-05-06T01:49:26.022Z,4.70
2023-05-06T01:51:53.744Z,4.60
2023-05-06T01:54:20.471Z,4.10
2023-05-06T01:56:47.058Z,5.17
2023-05-06T01:59:15.164Z,5.57
2023-05-06T02:01:41.728Z,9.00
2023-05-06T02:04:08.357Z,4.63
2023-05-06T02:06:35.698Z,5.80
2023-05-06T02:09:02.272Z,5.20
2023-05-06T02:11:30.467Z,8.10
2023-05-06T02:14:02.768Z,6.50
2023-05-06T02:16:32.482Z,5.50
2023-05-06T02:18:59.248Z,3.90
2023-05-06T02:21:26.500Z,4.80
2023-05-06T02:23:53.013Z,4.43
2023-05-06T02:26:19.544Z,5.03
2023-05-06T02:28:46.036Z,5.37
2023-05-06T02:31:16.224Z,4.30
2023-05-06T02:33:44.981Z,3.97
2023-05-06T02:36:11.516Z,4.93
2023-05-06T02:38:38.023Z,4.87
2023-05-06T02:41:04.574Z,8.00
2023-05-06T02:43:31.158Z,5.50
2023-05-06T02:45:58.412Z,5.20
2023-05-06T02:48:25.659Z,7.03
2023-05-06T02:50:52.140Z,5.37
2023-05-06T02:53:18.677Z,7.93
2023-05-06T02:55:45.175Z,8.93
2023-05-06T02:58:11.640Z,6.57
2023-05-06T03:00:38.169Z,4.40
2023-05-06T03:03:04.739Z,5.53
2023-05-06T03:05:31.463Z,7.73
2023-05-06T03:07:58.577Z,6.33
2023-05-06T03:10:25.541Z,6.93
2023-05-06T03:12:52.076Z,4.93
2023-05-06T03:15:18.948Z,5.57
2023-05-06T03:17:47.527Z,4.60
2023-05-06T03:20:14.394Z,5.40
2023-05-06T03:22:47.545Z,4.00
2023-05-06T03:25:14.257Z,4.57
2023-05-06T03:27:41.842Z,4.93
2023-05-06T03:30:16.277Z,5.77
2023-05-06T03:32:45.243Z,4.83
2023-05-06T03:35:16.497Z,5.40
2023-05-06T03:37:46.832Z,4.60
2023-05-06T03:40:13.709Z,3.80
2023-05-06T03:42:40.494Z,5.40
2023-05-06T03:45:08.002Z,5.67
2023-05-06T03:47:36.258Z,4.50
2023-05-06T03:50:04.777Z,4.47
2023-05-06T03:52:33.523Z,5.13
2023-05-06T03:55:00.739Z,4.73
2023-05-06T03:57:29.516Z,4.87
2023-05-06T03:59:56.436Z,5.20
2023-05-06T04:02:24.862Z,4.60
2023-05-06T04:04:51.510Z,4.80
2023-05-06T04:07:18.020Z,9.20
2023-05-06T04:09:44.555Z,7.97
2023-05-06T04:12:11.193Z,5.77
2023-05-06T04:14:37.755Z,6.53
2023-05-06T04:17:05.456Z,5.27
2023-05-06T04:19:33.665Z,5.43
2023-05-06T04:22:00.221Z,9.20
2023-05-06T04:24:28.482Z,7.43
2023-05-06T04:26:56.093Z,4.10
2023-05-06T04:29:23.277Z,5.47
2023-05-06T04:31:59.607Z,6.50
2023-05-06T04:34:29.001Z,8.67
2023-05-06T04:36:59.226Z,3.67
2023-05-06T04:39:48.756Z,9.70
2023-05-06T04:42:18.788Z,6.70
2023-05-06T04:44:54.850Z,4.60
2023-05-06T04:47:27.271Z,5.60
2023-05-06T04:49:54.730Z,5.87
2023-05-06T04:52:22.110Z,6.53
2023-05-06T04:54:48.653Z,4.67
2023-05-06T04:57:15.665Z,9.20
2023-05-06T04:59:44.339Z,5.53
2023-05-06T05:02:11.930Z,5.53
2023-05-06T05:04:41.203Z,4.57
2023-05-06T05:07:08.133Z,4.80
2023-05-06T05:09:35.699Z,5.77
2023-05-06T05:12:03.284Z,6.43
2023-05-06T05:14:33.076Z,7.23
2023-05-06T05:17:00.173Z,7.03
2023-05-06T05:19:26.780Z,5.97
2023-05-06T05:21:55.030Z,4.17
2023-05-06T05:24:23.521Z,6.03
2023-05-06T05:26:50.131Z,5.77
2023-05-06T05:29:17.247Z,4.87
2023-05-06T05:31:45.448Z,9.53
2023-05-06T05:34:12.579Z,7.93
2023-05-06T05:36:39.951Z,7.70
2023-05-06T05:39:10.131Z,5.47
2023-05-06T05:41:42.594Z,5.80
2023-05-06T05:44:09.084Z,4.90
2023-05-06T05:46:36.139Z,4.90
2023-05-06T05:49:04.748Z,5.60
2023-05-06T05:51:31.279Z,5.33
2023-05-06T05:53:58.734Z,5.43
2023-05-06T05:56:26.829Z,8.07
2023-05-06T05:58:53.805Z,6.07
2023-05-06T06:01:20.384Z,6.47
2023-05-06T06:03:47.742Z,9.10
2023-05-06T06:06:14.440Z,5.00
2023-05-06T06:08:41.503Z,5.50
2023-05-06T06:11:09.029Z,4.40
2023-05-06T06:13:40.001Z,6.93
2023-05-06T06:16:07.706Z,7.37
2023-05-06T06:18:34.372Z,7.30
2023-05-06T06:21:00.997Z,4.90
2023-05-06T06:23:27.511Z,4.60
2023-05-06T06:25:54.077Z,6.53
2023-05-06T06:28:21.169Z,7.20
2023-05-06T06:30:47.728Z,6.10
2023-05-06T06:33:14.195Z,8.57
2023-05-06T06:35:40.905Z,7.20
2023-05-06T06:38:07.373Z,11.10
2023-05-06T06:40:33.916Z,10.40
2023-05-06T06:43:01.105Z,10.23
2023-05-06T06:45:46.550Z,18.20
2023-05-06T06:48:13.112Z,10.37
2023-05-06T06:50:39.668Z,9.50
2023-05-06T06:53:06.566Z,13.73
2023-05-06T06:55:33.286Z,10.57
2023-05-06T06:57:59.718Z,11.80
2023-05-06T07:00:26.366Z,13.60
2023-05-06T07:02:53.900Z,11.63
2023-05-06T07:05:20.464Z,13.67
2023-05-06T07:07:46.972Z,12.77
2023-05-06T07:10:13.785Z,14.97
2023-05-06T07:12:40.243Z,14.63
2023-05-06T07:15:08.856Z,12.37
2023-05-06T07:17:35.957Z,12.93
2023-05-06T07:20:02.880Z,12.50
2023-05-06T07:22:29.324Z,12.23
2023-05-06T07:24:55.815Z,11.93
2023-05-06T07:27:22.314Z,13.10
2023-05-06T07:29:48.747Z,11.00
2023-05-06T07:32:15.203Z,13.20
2023-05-06T07:34:41.636Z,10.10
2023-05-06T07:37:08.249Z,12.13
2023-05-06T07:39:34.855Z,11.90
2023-05-06T07:42:01.838Z,8.07
2023-05-06T07:44:28.330Z,9.07
2023-05-06T07:46:54.862Z,7.73
2023-05-06T07:49:21.705Z,10.00
2023-05-06T07:51:48.352Z,11.63
2023-05-06T07:54:15.082Z,9.87
2023-05-06T07:56:41.797Z,11.60
2023-05-06T07:59:08.372Z,9.67
2023-05-06T08:01:34.938Z,6.70
2023-05-06T08:04:01.500Z,8.80
2023-05-06T08:06:28.061Z,10.60
2023-05-06T08:08:54.547Z,7.60
2023-05-06T08:11:20.997Z,8.70
2023-05-06T08:13:47.448Z,7.10
2023-05-06T08:16:14.063Z,9.03
2023-05-06T08:18:40.699Z,7.40
2023-05-06T08:21:07.246Z,6.63
2023-05-06T08:23:41.494Z,7.60
2023-05-06T08:26:07.916Z,8.90
2023-05-06T08:28:34.603Z,8.53
2023-05-06T08:31:01.186Z,8.80
2023-05-06T08:33:27.839Z,8.10
2023-05-06T08:35:57.546Z,21.27
2023-05-06T08:38:25.871Z,7.83
2023-05-06T08:40:54.547Z,7.13
2023-05-06T08:43:22.549Z,7.10
2023-05-06T08:45:49.426Z,8.20
2023-05-06T08:48:16.651Z,5.87
2023-05-06T08:50:43.476Z,7.80
2023-05-06T08:53:14.030Z,7.30
2023-05-06T08:55:42.518Z,6.03
2023-05-06T08:58:13.287Z,5.80
2023-05-06T09:00:39.943Z,7.87
2023-05-06T09:03:10.693Z,9.90
2023-05-06T09:05:39.298Z,11.30
2023-05-06T09:08:05.791Z,6.40
2023-05-06T09:10:37.768Z,8.03
2023-05-06T09:13:04.257Z,6.30
2023-05-06T09:15:43.284Z,10.30
2023-05-06T09:18:11.017Z,10.60
2023-05-06T09:20:42.040Z,14.20
2023-05-06T09:23:09.612Z,6.70
2023-05-06T09:25:36.951Z,4.57
2023-05-06T09:28:13.289Z,7.07
2023-05-06T09:30:42.170Z,5.97
2023-05-06T09:33:09.369Z,3.43
2023-05-06T09:35:43.612Z,15.33
2023-05-06T09:38:10.525Z,14.93
2023-05-06T09:40:38.055Z,9.70
2023-05-06T09:43:05.668Z,7.00
2023-05-06T09:45:32.995Z,8.60
2023-05-06T09:48:00.261Z,10.90
2023-05-06T09:50:27.332Z,9.87
2023-05-06T09:52:55.986Z,7.57
2023-05-06T09:55:23.480Z,11.00
2023-05-06T09:57:58.143Z,10.50
2023-05-06T10:00:28.155Z,7.50
2023-05-06T10:02:55.101Z,5.77
2023-05-06T10:05:22.779Z,9.40
2023-05-06T10:07:52.103Z,7.80
2023-05-06T10:10:18.926Z,10.70
2023-05-06T10:12:48.953Z,3.87
2023-05-06T10:15:15.728Z,2.70
2023-05-06T10:17:45.210Z,3.30
2023-05-06T10:20:13.927Z,3.63
2023-05-06T10:22:40.325Z,4.70
2023-05-06T10:25:25.479Z,9.10
2023-05-06T10:27:52.765Z,4.60
2023-05-06T10:30:20.082Z,5.10
2023-05-06T10:32:46.779Z,5.73
2023-05-06T10:35:27.508Z,3.90
2023-05-06T10:37:55.059Z,3.83
2023-05-06T10:40:23.085Z,5.80
2023-05-06T10:42:49.552Z,6.33
2023-05-06T10:45:16.584Z,8.30
2023-05-06T10:47:55.495Z,7.53
2023-05-06T10:50:26.229Z,5.03
2023-05-06T10:52:57.731Z,3.60
2023-05-06T10:55:34.859Z,2.90
2023-05-06T10:58:12.714Z,2.57
2023-05-06T11:00:39.266Z,3.13
2023-05-06T11:03:18.681Z,3.90
2023-05-06T11:05:52.303Z,3.40
2023-05-06T11:08:26.285Z,4.13
2023-05-06T11:10:53.990Z,3.63
2023-05-06T11:13:23.467Z,3.67
2023-05-06T11:15:51.927Z,5.40
2023-05-06T11:18:24.433Z,8.93
2023-05-06T11:21:02.330Z,3.23
2023-05-06T11:23:49.349Z,3.00
2023-05-06T11:26:16.469Z,3.33
2023-05-06T11:28:45.132Z,3.50
2023-05-06T11:31:13.051Z,9.87
2023-05-06T11:33:49.770Z,3.20
2023-05-06T11:36:18.182Z,4.57
2023-05-06T11:38:56.323Z,4.60
2023-05-06T11:41:23.464Z,4.63
2023-05-06T11:43:51.749Z,3.10
2023-05-06T11:46:23.579Z,4.03
2023-05-06T11:49:17.202Z,5.10
2023-05-06T11:51:43.700Z,5.30
2023-05-06T11:54:11.000Z,5.00
2023-05-06T11:56:49.678Z,4.83
2023-05-06T11:59:16.638Z,4.07
2023-05-06T12:01:44.073Z,3.23
2023-05-06T12:04:12.695Z,2.20
2023-05-06T12:06:40.060Z,4.43
2023-05-06T12:09:10.223Z,2.80
2023-05-06T12:11:37.956Z,2.80
2023-05-06T12:14:06.910Z,1.80
2023-05-06T12:16:35.477Z,4.37
2023-05-06T12:19:03.023Z,2.30
2023-05-06T12:21:30.429Z,3.30
2023-05-06T12:23:59.596Z,4.20
2023-05-06T12:26:31.862Z,5.50
2023-05-06T12:29:07.695Z,2.37
2023-05-06T12:31:34.700Z,4.17
2023-05-06T12:34:01.425Z,2.60
2023-05-06T12:36:28.174Z,2.90
2023-05-06T12:38:59.571Z,2.80
2023-05-06T12:41:37.289Z,1.93
2023-05-06T12:44:24.315Z,3.50
2023-05-06T12:46:51.956Z,3.50
2023-05-06T12:49:18.417Z,6.83
2023-05-06T12:51:47.122Z,3.00
2023-05-06T12:54:30.667Z,2.47
2023-05-06T12:56:57.406Z,1.80
2023-05-06T12:59:25.972Z,1.77
2023-05-06T13:01:52.542Z,3.10
2023-05-06T13:04:19.100Z,3.13
2023-05-06T13:06:46.279Z,1.87
2023-05-06T13:09:15.203Z,3.23
2023-05-06T13:11:41.901Z,3.37
2023-05-06T13:14:09.045Z,4.13
2023-05-06T13:16:35.686Z,3.87
2023-05-06T13:19:03.328Z,2.73
2023-05-06T13:21:29.815Z,2.43
2023-05-06T13:23:56.339Z,1.40
2023-05-06T13:26:22.924Z,3.37
2023-05-06T13:28:49.626Z,2.23
2023-05-06T13:31:16.191Z,2.27
2023-05-06T13:33:42.731Z,2.70
2023-05-06T13:36:09.587Z,1.90
2023-05-06T13:38:36.216Z,5.43
2023-05-06T13:41:02.937Z,1.80
2023-05-06T13:43:29.489Z,4.17
2023-05-06T13:45:56.268Z,2.73
2023-05-06T13:48:22.892Z,3.10
2023-05-06T13:50:49.551Z,1.90
2023-05-06T13:53:16.513Z,2.60
2023-05-06T13:55:43.608Z,3.77
2023-05-06T13:58:10.972Z,3.10
2023-05-06T14:00:37.500Z,2.60
2023-05-06T14:03:04.380Z,4.27
2023-05-06T14:05:31.100Z,2.20
2023-05-06T14:07:57.729Z,7.70
2023-05-06T14:10:24.343Z,3.50
2023-05-06T14:12:51.306Z,2.10
2023-05-06T14:15:17.917Z,2.17
2023-05-06T14:17:44.509Z,4.20
2023-05-06T14:20:11.400Z,3.17
2023-05-06T14:22:40.623Z,2.43
2023-05-06T14:25:08.099Z,2.33
2023-05-06T14:27:34.887Z,1.97
2023-05-06T14:30:02.509Z,4.87
2023-05-06T14:32:29.191Z,2.20
2023-05-06T14:34:56.020Z,3.37
2023-05-06T14:37:22.552Z,1.50
2023-05-06T14:39:49.718Z,1.30
2023-05-06T14:42:16.605Z,1.80
2023-05-06T14:44:45.082Z,4.07
2023-05-06T14:47:11.549Z,1.40
2023-05-06T14:49:38.049Z,1.77
2023-05-06T14:52:04.613Z,3.87
2023-05-06T14:54:31.223Z,3.43
2023-05-06T14:57:01.268Z,1.97
2023-05-06T14:59:28.060Z,2.33
2023-05-06T15:01:56.344Z,2.27
2023-05-06T15:04:22.942Z,2.27
2023-05-06T15:06:49.499Z,2.60
2023-05-06T15:09:16.082Z,3.20
2023-05-06T15:11:44.128Z,2.03
2023-05-06T15:14:10.820Z,10.43
2023-05-06T15:16:37.404Z,3.57
2023-05-06T15:19:04.564Z,3.00
2023-05-06T15:21:31.585Z,2.40
2023-05-06T15:23:58.317Z,4.73
2023-05-06T15:26:24.895Z,3.00
2023-05-06T15:28:51.438Z,3.13
2023-05-06T15:31:18.118Z,1.50
2023-05-06T15:33:44.730Z,2.00
2023-05-06T15:36:11.279Z,2.90
2023-05-06T15:38:57.658Z,2.60
2023-05-06T15:41:30.641Z,1.20
2023-05-06T15:43:58.335Z,2.90
2023-05-06T15:46:26.546Z,2.30
2023-05-06T15:49:09.059Z,1.43
2023-05-06T15:51:39.921Z,2.40
2023-05-06T15:54:06.795Z,2.10
2023-05-06T15:56:39.437Z,1.73
2023-05-06T15:59:08.385Z,7.03
2023-05-06T16:01:53.859Z,3.20
2023-05-06T16:04:22.414Z,2.80
2023-05-06T16:06:49.562Z,1.83
2023-05-06T16:09:16.066Z,1.57
2023-05-06T16:11:42.551Z,2.90
2023-05-06T16:14:09.053Z,1.33
2023-05-06T16:16:36.075Z,1.53
2023-05-06T16:19:02.624Z,7.63
2023-05-06T16:21:29.213Z,3.23
2023-05-06T16:23:56.111Z,1.30
2023-05-06T16:26:22.842Z,1.57
2023-05-06T16:28:49.347Z,2.00
2023-05-06T16:31:16.062Z,2.03
2023-05-06T16:33:42.647Z,4.00
2023-05-06T16:36:09.295Z,2.13
2023-05-06T16:38:36.333Z,5.00
2023-05-06T16:41:02.846Z,2.93
2023-05-06T16:43:29.356Z,5.13
2023-05-06T16:45:55.908Z,1.53
2023-05-06T16:48:22.608Z,2.03
2023-05-06T16:50:49.184Z,1.13
2023-05-06T16:53:17.267Z,2.70
2023-05-06T16:55:49.004Z,2.50
2023-05-06T16:58:15.966Z,3.53
2023-05-06T17:00:42.657Z,2.90
2023-05-06T17:03:09.468Z,8.10
2023-05-06T17:05:36.468Z,3.50
2023-05-06T17:08:07.059Z,3.63
2023-05-06T17:10:33.708Z,2.00
2023-05-06T17:13:00.302Z,2.10
2023-05-06T17:15:26.854Z,1.40
2023-05-06T17:17:53.496Z,2.43
2023-05-06T17:20:20.194Z,1.97
2023-05-06T17:22:46.994Z,2.03
2023-05-06T17:25:13.837Z,1.63
2023-05-06T17:27:40.437Z,3.90
2023-05-06T17:30:09.616Z,2.47
2023-05-06T17:32:36.502Z,1.50
2023-05-06T17:35:03.364Z,4.60
2023-05-06T17:37:31.031Z,2.37
2023-05-06T17:39:57.875Z,2.40
2023-05-06T17:42:24.464Z,2.30
2023-05-06T17:44:51.113Z,1.70
2023-05-06T17:47:17.742Z,3.03
2023-05-06T17:49:45.100Z,2.10
2023-05-06T17:52:11.676Z,1.67
2023-05-06T17:54:38.263Z,2.37
2023-05-06T17:57:04.734Z,2.23
2023-05-06T17:59:31.448Z,1.40
2023-05-06T18:01:57.976Z,2.13
2023-05-06T18:04:24.496Z,1.87
2023-05-06T18:06:51.335Z,1.83
2023-05-06T18:09:17.951Z,1.40
2023-05-06T18:11:44.500Z,2.43
2023-05-06T18:14:11.368Z,2.00
2023-05-06T18:16:38.203Z,1.97
2023-05-06T18:19:05.206Z,4.93
2023-05-06T18:21:33.918Z,2.57
2023-05-06T18:24:05.914Z,13.27
2023-05-06T18:26:45.360Z,5.00
2023-05-06T18:29:12.876Z,5.17
2023-05-06T18:31:39.807Z,2.23
2023-05-06T18:34:06.790Z,5.93
2023-05-06T18:36:34.943Z,2.10
2023-05-06T18:39:02.511Z,3.87
2023-05-06T18:41:29.135Z,4.87
2023-05-06T18:43:55.627Z,6.13
2023-05-06T18:46:22.653Z,2.17
2023-05-06T18:48:49.230Z,2.13
2023-05-06T18:51:17.379Z,3.13
2023-05-06T18:53:45.078Z,4.40
2023-05-06T18:56:14.116Z,3.10
2023-05-06T18:58:41.146Z,5.03
2023-05-06T19:01:10.045Z,2.60
2023-05-06T19:03:37.395Z,2.20
2023-05-06T19:06:07.650Z,3.90
2023-05-06T19:08:34.281Z,3.80
2023-05-06T19:11:01.538Z,2.73
2023-05-06T19:13:28.336Z,5.57
2023-05-06T19:15:55.069Z,6.67
2023-05-06T19:18:21.670Z,5.77
2023-05-06T19:20:48.205Z,5.00
2023-05-06T19:23:14.708Z,8.37
2023-05-06T19:25:41.233Z,7.97
2023-05-06T19:28:07.926Z,9.67
2023-05-06T19:30:35.332Z,10.80
2023-05-06T19:33:02.989Z,12.60
2023-05-06T19:35:29.592Z,9.83
2023-05-06T19:37:56.184Z,15.90
2023-05-06T19:40:22.818Z,9.73
2023-05-06T19:42:49.524Z,13.83
2023-05-06T19:45:18.135Z,10.10
2023-05-06T19:47:45.782Z,6.70
2023-05-06T19:50:13.013Z,8.37
2023-05-06T19:52:40.112Z,13.40
2023-05-06T19:55:07.283Z,11.67
2023-05-06T19:57:33.998Z,11.27
2023-05-06T20:00:05.102Z,11.80
2023-05-06T20:02:32.892Z,14.40
2023-05-06T20:05:00.458Z,11.50
2023-05-06T20:07:27.437Z,9.53
2023-05-06T20:09:55.895Z,8.30
2023-05-06T20:12:23.488Z,9.67
2023-05-06T20:14:50.165Z,12.07
2023-05-06T20:17:16.941Z,7.40
2023-05-06T20:19:44.582Z,7.93
2023-05-06T20:22:11.791Z,9.13
2023-05-06T20:24:38.306Z,11.20
2023-05-06T20:27:04.817Z,11.87
2023-05-06T20:29:31.447Z,10.17
2023-05-06T20:31:58.449Z,12.27
2023-05-06T20:34:25.606Z,18.00
2023-05-06T20:36:54.329Z,12.80
2023-05-06T20:39:21.933Z,14.07
2023-05-06T20:41:48.433Z,12.77
2023-05-06T20:44:15.094Z,14.63
2023-05-06T20:46:41.552Z,10.37
2023-05-06T20:49:08.041Z,13.50
2023-05-06T20:51:34.535Z,11.67
2023-05-06T20:54:01.321Z,7.70
2023-05-06T20:56:28.347Z,10.67
2023-05-06T20:58:55.863Z,12.63
2023-05-06T21:01:23.890Z,9.33
2023-05-06T21:03:50.808Z,7.80
2023-05-06T21:06:18.174Z,11.10
2023-05-06T21:08:46.297Z,12.60
2023-05-06T21:11:13.725Z,15.77
2023-05-06T21:13:40.756Z,10.60
2023-05-06T21:16:07.563Z,12.23
2023-05-06T21:18:35.877Z,11.60
2023-05-06T21:21:02.525Z,11.33
2023-05-06T21:23:29.059Z,13.23
2023-05-06T21:25:55.663Z,12.70
2023-05-06T21:28:22.194Z,10.67
2023-05-06T21:30:48.699Z,12.10
2023-05-06T21:33:15.215Z,9.90
2023-05-06T21:35:41.705Z,10.60
2023-05-06T21:38:08.276Z,10.87
2023-05-06T21:40:34.785Z,8.97
2023-05-06T21:43:02.238Z,12.27
2023-05-06T21:45:29.107Z,16.30
2023-05-06T21:47:55.788Z,15.13
2023-05-06T21:50:22.428Z,12.10
2023-05-06T21:52:48.912Z,13.03
2023-05-06T21:55:15.569Z,11.43
2023-05-06T21:57:43.455Z,12.60
2023-05-06T22:00:12.405Z,14.00
2023-05-06T22:02:40.314Z,11.60
2023-05-06T22:05:07.974Z,11.80
2023-05-06T22:07:35.686Z,8.17
2023-05-06T22:10:02.232Z,10.73
2023-05-06T22:12:28.748Z,11.20
2023-05-06T22:14:55.241Z,15.30
2023-05-06T22:17:22.241Z,12.10
2023-05-06T22:19:49.003Z,9.20
2023-05-06T22:22:16.160Z,10.87
2023-05-06T22:24:42.745Z,11.13
2023-05-06T22:27:09.347Z,10.73
2023-05-06T22:29:36.030Z,9.90
2023-05-06T22:32:03.287Z,12.20
2023-05-06T22:34:29.966Z,9.23
2023-05-06T22:36:58.332Z,9.43
2023-05-06T22:39:26.842Z,10.33
2023-05-06T22:41:53.460Z,14.03
2023-05-06T22:44:20.020Z,17.20
2023-05-06T22:46:46.665Z,10.80
2023-05-06T22:49:14.458Z,11.13
2023-05-06T22:51:41.312Z,10.80
2023-05-06T22:54:07.746Z,8.80
2023-05-06T22:56:34.231Z,11.27
2023-05-06T22:59:00.877Z,13.33
2023-05-06T23:01:32.013Z,19.50
2023-05-06T23:03:59.614Z,12.67
2023-05-06T23:06:27.665Z,14.23
2023-05-06T23:08:54.422Z,16.20
2023-05-06T23:11:20.905Z,15.90
2023-05-06T23:13:47.707Z,12.00
2023-05-06T23:16:14.711Z,10.00
2023-05-06T23:18:41.614Z,13.17
2023-05-06T23:21:08.578Z,13.87
2023-05-06T23:23:35.306Z,27.43
2023-05-06T23:26:01.837Z,13.43
2023-05-06T23:28:28.596Z,17.70
2023-05-06T23:30:55.128Z,18.40
2023-05-06T23:33:21.679Z,18.67
2023-05-06T23:35:48.363Z,11.83
2023-05-06T23:38:14.855Z,11.17
2023-05-06T23:40:41.311Z,9.43
2023-05-06T23:43:09.828Z,13.33
2023-05-06T23:45:36.411Z,12.73
2023-05-06T23:48:03.366Z,13.33
2023-05-06T23:50:29.920Z,11.20
2023-05-06T23:52:56.406Z,9.50
2023-05-06T23:55:22.885Z,10.63
2023-05-06T23:57:49.442Z,10.30
